sim
Sign-in with your pilot id or email,
or register
Callsign
Passwort

Schedule Details

Flight Number: RYR5142 (2)
Departure: Karlsruhe/Baden-Baden Airport (EDSB) at 08:05
Arrival: Thessaloniki International Airport (LGTS) at 10:40
Route: Ryanair Passenger Schedule. Enter filed route here before submitting Pirep.

Weather Information
Getting current METAR information for EDSB 211720Z 06008KT CAVOK 23/10 Q1025
Getting current METAR information for LGTS 211720Z 17006KT CAVOK 30/12 Q1016 NOSIG

Schedule Frequency

Route Map